Time;durP1;ratioP1;P1;durP2;ratioP2;P2;SDS_P1;SDS_P2;PMS_P1;PMS_P2;Temp;Humidity;BMP_temperature;BMP_pressure;BME280_temperature;BME280_humidity;BME280_pressure;Samples;Min_cycle;Max_cycle;Signal;HPM_P1;HPM_P2
2023/06/17 00:01:30;;;;;;;11.20;5.70;;;;;;;13.21;100.00;100385.15;105678;1254;64481;-43
2023/06/17 00:03:58;;;;;;;8.90;5.60;;;;;;;13.18;100.00;100385.05;105662;1260;71373;-43
2023/06/17 00:06:26;;;;;;;9.10;5.10;;;;;;;13.16;100.00;100380.11;105639;1257;60537;-41
2023/06/17 00:08:54;;;;;;;8.30;5.20;;;;;;;13.15;100.00;100379.27;105665;1254;60326;-42
2023/06/17 00:11:22;;;;;;;8.30;5.30;;;;;;;13.16;100.00;100376.48;105698;1253;72594;-42
2023/06/17 00:13:50;;;;;;;10.80;5.00;;;;;;;13.15;100.00;100376.83;105665;1254;64531;-42
2023/06/17 00:16:18;;;;;;;9.30;5.20;;;;;;;13.14;100.00;100373.73;105681;1257;70558;-42
2023/06/17 00:18:47;;;;;;;10.40;5.20;;;;;;;13.11;100.00;100365.34;105670;1254;61605;-42
2023/06/17 00:21:15;;;;;;;6.70;5.20;;;;;;;13.10;100.00;100363.47;105722;1260;60313;-42
2023/06/17 00:23:43;;;;;;;12.90;5.50;;;;;;;13.08;100.00;100362.64;105641;1254;72587;-42
2023/06/17 00:26:10;;;;;;;9.30;5.50;;;;;;;13.06;100.00;100359.62;105645;1254;64028;-42
2023/06/17 00:28:38;;;;;;;9.30;4.90;;;;;;;13.03;100.00;100358.67;105673;1255;71468;-42
2023/06/17 00:31:06;;;;;;;9.20;5.00;;;;;;;13.01;100.00;100358.02;105610;1254;61627;-42
2023/06/17 00:33:34;;;;;;;24.00;5.20;;;;;;;13.00;100.00;100357.19;105697;1259;60462;-42
2023/06/17 00:36:03;;;;;;;10.10;5.50;;;;;;;13.00;100.00;100357.55;105668;1254;72600;-42
2023/06/17 00:38:30;;;;;;;13.80;5.30;;;;;;;13.00;100.00;100355.45;105709;1256;63939;-42
2023/06/17 00:40:59;;;;;;;12.60;5.10;;;;;;;13.02;100.00;100358.34;105651;1256;70594;-42
2023/06/17 00:43:26;;;;;;;16.40;4.80;;;;;;;13.04;100.00;100352.40;105651;1254;62193;-42
2023/06/17 00:45:54;;;;;;;6.80;5.40;;;;;;;13.04;100.00;100348.60;105597;1253;60518;-42
2023/06/17 00:48:23;;;;;;;14.00;5.20;;;;;;;13.03;100.00;100348.43;105589;1260;72840;-42
2023/06/17 00:50:51;;;;;;;8.40;5.70;;;;;;;13.02;100.00;100346.55;105681;1260;65344;-42
2023/06/17 00:53:19;;;;;;;7.70;4.90;;;;;;;13.02;100.00;100346.05;105755;1260;72594;-42
2023/06/17 00:55:47;;;;;;;18.00;5.50;;;;;;;13.02;100.00;100344.50;105537;1258;60460;-43
2023/06/17 00:58:15;;;;;;;10.10;4.90;;;;;;;13.01;100.00;100345.55;105406;1260;60328;-44
2023/06/17 01:00:43;;;;;;;11.70;5.40;;;;;;;13.01;100.00;100342.25;105671;1253;73838;-44
2023/06/17 01:03:11;;;;;;;9.10;4.60;;;;;;;13.00;100.00;100341.61;105615;1261;64008;-41
2023/06/17 01:05:40;;;;;;;9.00;4.90;;;;;;;12.97;100.00;100338.23;105690;1254;72643;-42
2023/06/17 01:08:34;;;;;;;8.30;5.10;;;;;;;12.92;100.00;100335.59;105611;1257;61534;-42
2023/06/17 01:11:04;;;;;;;16.20;4.80;;;;;;;12.88;100.00;100332.44;105664;1259;60415;-41
2023/06/17 01:13:32;;;;;;;9.00;4.60;;;;;;;12.84;100.00;100334.46;105667;1257;72600;-42
2023/06/17 01:16:01;;;;;;;16.00;5.40;;;;;;;12.79;100.00;100337.20;105675;1253;64469;-42
2023/06/17 01:18:32;;;;;;;10.40;5.30;;;;;;;12.75;100.00;100336.45;105636;1253;72609;-41
2023/06/17 01:21:03;;;;;;;11.80;5.30;;;;;;;12.69;100.00;100334.54;105559;1257;60495;-41
2023/06/17 01:23:35;;;;;;;9.30;5.00;;;;;;;12.62;100.00;100330.21;105693;1259;60406;-42
2023/06/17 01:26:03;;;;;;;9.20;5.10;;;;;;;12.57;100.00;100331.09;105694;1254;72618;-41
2023/06/17 01:28:33;;;;;;;14.80;5.20;;;;;;;12.53;100.00;100331.38;105687;1259;64084;-42
2023/06/17 01:31:01;;;;;;;10.20;4.80;;;;;;;12.49;100.00;100332.86;105678;1260;72722;-42
2023/06/17 01:33:29;;;;;;;6.80;5.10;;;;;;;12.46;100.00;100330.34;105676;1258;60454;-41
2023/06/17 01:36:02;;;;;;;12.90;4.80;;;;;;;12.44;100.00;100332.30;105679;1254;60402;-41
2023/06/17 01:38:37;;;;;;;7.40;5.10;;;;;;;12.41;100.00;100331.52;105675;1254;73765;-41
2023/06/17 01:41:10;;;;;;;7.30;4.70;;;;;;;12.40;100.00;100328.45;105685;1256;65190;-41
2023/06/17 01:43:40;;;;;;;12.40;5.60;;;;;;;12.39;100.00;100330.71;105592;1253;72661;-42
2023/06/17 01:46:08;;;;;;;15.80;5.10;;;;;;;12.38;100.00;100331.77;105668;1254;61734;-42
2023/06/17 01:48:36;;;;;;;13.60;4.90;;;;;;;12.36;100.00;100334.59;105637;1254;60489;-42
2023/06/17 01:51:04;;;;;;;9.80;4.80;;;;;;;12.35;100.00;100334.79;105650;1253;73806;-42
2023/06/17 01:53:33;;;;;;;9.80;5.00;;;;;;;12.35;100.00;100341.03;105632;1254;64300;-42
2023/06/17 01:56:00;;;;;;;8.10;4.90;;;;;;;12.33;100.00;100343.52;105655;1259;71509;-42
2023/06/17 01:58:28;;;;;;;13.00;5.40;;;;;;;12.31;100.00;100345.48;105663;1260;60424;-42
2023/06/17 02:00:58;;;;;;;15.90;5.80;;;;;;;12.30;100.00;100351.89;105684;1254;60447;-42
2023/06/17 02:03:26;;;;;;;8.90;5.30;;;;;;;12.31;100.00;100355.34;105640;1255;73780;-42
2023/06/17 02:05:53;;;;;;;7.30;5.00;;;;;;;12.32;100.00;100359.29;105695;1259;65203;-42
2023/06/17 02:08:22;;;;;;;8.10;4.90;;;;;;;12.32;100.00;100361.86;105636;1259;71382;-42
2023/06/17 02:10:51;;;;;;;11.80;5.30;;;;;;;12.34;100.00;100364.59;105738;1253;60422;-42
2023/06/17 02:13:19;;;;;;;13.80;5.40;;;;;;;12.37;100.00;100366.41;105630;1261;60428;-42
2023/06/17 02:15:47;;;;;;;14.50;5.40;;;;;;;12.40;100.00;100369.45;105712;1254;72662;-42
2023/06/17 02:18:15;;;;;;;8.30;5.00;;;;;;;12.43;100.00;100371.79;105635;1255;64018;-42
2023/06/17 02:20:45;;;;;;;9.00;4.90;;;;;;;12.47;100.00;100380.16;105686;1256;71422;-42
2023/06/17 02:23:13;;;;;;;12.60;5.10;;;;;;;12.51;100.00;100381.61;105688;1259;60592;-42
2023/06/17 02:25:41;;;;;;;10.40;4.70;;;;;;;12.54;100.00;100389.48;105764;1254;60344;-43
2023/06/17 02:28:08;;;;;;;9.50;5.40;;;;;;;12.58;100.00;100395.08;105642;1259;73799;-42
2023/06/17 02:30:36;;;;;;;7.50;4.80;;;;;;;12.62;100.00;100400.00;105653;1253;63213;-42
2023/06/17 02:33:04;;;;;;;13.10;5.50;;;;;;;12.67;100.00;100403.86;105660;1257;71811;-42
2023/06/17 02:35:32;;;;;;;13.80;5.40;;;;;;;12.72;100.00;100415.33;105609;1255;60468;-42
2023/06/17 02:38:00;;;;;;;11.00;5.10;;;;;;;12.76;100.00;100418.48;105635;1254;60442;-42
2023/06/17 02:40:28;;;;;;;7.80;4.90;;;;;;;12.82;100.00;100425.94;105741;1254;72669;-42
2023/06/17 02:42:55;;;;;;;13.50;5.30;;;;;;;12.87;100.00;100437.05;105636;1253;65297;-42
2023/06/17 02:45:23;;;;;;;9.60;5.00;;;;;;;12.93;100.00;100442.60;105667;1254;72617;-43
2023/06/17 02:47:51;;;;;;;9.80;5.00;;;;;;;13.00;100.00;100449.16;105625;1254;60476;-42
2023/06/17 03:42:16;;;;;;;4.90;4.50;;;;;;;15.98;100.00;100239.20;102689;1294;601004;-42
2023/06/17 03:44:45;;;;;;;9.50;4.10;;;;;;;16.38;100.00;100137.81;104865;1267;60884;-42
2023/06/17 03:47:13;;;;;;;10.60;4.60;;;;;;;16.78;100.00;100031.54;104839;1270;59963;-42
2023/06/17 03:49:42;;;;;;;9.60;4.80;;;;;;;17.15;100.00;99900.84;104794;1271;71085;-42
2023/06/17 03:52:10;;;;;;;17.50;4.80;;;;;;;17.48;100.00;99771.00;104881;1266;64347;-43
2023/06/17 03:54:39;;;;;;;9.40;4.50;;;;;;;17.76;100.00;99733.29;104851;1272;71682;-42
2023/06/17 03:57:07;;;;;;;6.50;4.80;;;;;;;18.02;100.00;99739.23;105109;1263;233139;-43
2023/06/17 03:59:36;;;;;;;8.80;5.10;;;;;;;18.28;100.00;99748.69;105907;1254;59666;-47
2023/06/17 04:02:04;;;;;;;5.10;4.30;;;;;;;18.52;100.00;99773.27;105748;1259;71951;-43
2023/06/17 04:04:34;;;;;;;11.90;4.30;;;;;;;18.75;100.00;99806.05;105564;1259;62958;-43
2023/06/17 04:07:02;;;;;;;10.30;4.70;;;;;;;18.97;100.00;99847.17;105959;1253;71811;-45
2023/06/17 04:09:32;;;;;;;6.10;4.50;;;;;;;19.16;100.00;99871.52;105925;1254;59609;-44
2023/06/17 04:12:02;;;;;;;12.60;4.50;;;;;;;19.33;100.00;99917.48;105902;1254;59581;-44
2023/06/17 04:14:29;;;;;;;6.20;4.50;;;;;;;19.48;100.00;99973.77;105920;1252;72953;-44
2023/06/17 04:16:59;;;;;;;10.60;4.20;;;;;;;19.62;100.00;100001.38;105886;1256;64405;-41
2023/06/17 04:19:26;;;;;;;7.00;4.30;;;;;;;19.80;100.00;100021.09;105879;1252;72693;-42
2023/06/17 04:21:54;;;;;;;5.50;4.30;;;;;;;19.91;100.00;100047.36;105904;1256;60165;-42
2023/06/17 04:24:22;;;;;;;17.80;4.60;;;;;;;20.00;100.00;100065.94;106010;1254;59861;-42
2023/06/17 04:26:52;;;;;;;11.40;4.30;;;;;;;20.09;100.00;100080.73;105883;1253;71766;-42
2023/06/17 04:29:22;;;;;;;8.40;4.30;;;;;;;20.25;100.00;100078.34;105833;1257;65290;-43
2023/06/17 04:31:50;;;;;;;7.20;4.10;;;;;;;20.39;100.00;100086.50;105954;1253;72327;-43
2023/06/17 04:34:21;;;;;;;9.70;4.10;;;;;;;20.56;100.00;100090.34;105989;1253;59628;-43
2023/06/17 04:36:58;;;;;;;7.10;4.30;;;;;;;20.67;100.00;100100.66;105874;1256;59606;-42
2023/06/17 04:39:29;;;;;;;13.20;3.90;;;;;;;20.80;100.00;100111.87;105769;1258;72054;-43
2023/06/17 04:41:58;;;;;;;8.60;4.00;;;;;;;20.96;100.00;100115.57;105796;1253;63914;-43
2023/06/17 04:44:26;;;;;;;6.40;4.00;;;;;;;21.16;100.00;100120.02;105695;1254;71516;-43
2023/06/17 04:46:54;;;;;;;5.30;3.90;;;;;;;21.40;100.00;100110.18;105667;1259;59695;-43
2023/06/17 04:49:22;;;;;;;7.50;4.20;;;;;;;21.63;100.00;100116.84;105693;1254;59817;-42
2023/06/17 04:51:52;;;;;;;12.00;4.10;;;;;;;21.86;97.77;100124.59;105675;1259;71753;-43
2023/06/17 04:54:24;;;;;;;11.10;4.00;;;;;;;22.03;91.68;100123.84;105712;1253;63389;-43
2023/06/17 04:56:52;;;;;;;9.10;3.90;;;;;;;22.14;83.63;100125.36;105765;1257;72743;-43
2023/06/17 04:59:21;;;;;;;5.30;3.80;;;;;;;22.26;81.02;100133.14;105754;1253;59617;-43
2023/06/17 05:01:50;;;;;;;13.00;4.40;;;;;;;22.50;73.08;100080.98;105787;1260;59539;-43
2023/06/17 05:04:17;;;;;;;15.00;4.50;;;;;;;22.59;70.04;100108.28;105773;1254;70910;-43
2023/06/17 05:09:41;;;;;;;9.10;4.20;;;;;;;22.88;71.25;100151.45;102642;1292;600924;-41
2023/06/17 05:12:11;;;;;;;10.90;3.80;;;;;;;23.02;69.56;100137.26;104806;1265;60021;-42
2023/06/17 05:14:40;;;;;;;8.00;3.60;;;;;;;23.18;68.21;100131.80;104817;1267;60068;-43
2023/06/17 05:17:07;;;;;;;7.50;4.00;;;;;;;23.36;66.80;100121.15;104877;1265;71149;-42
2023/06/17 05:19:36;;;;;;;8.70;3.80;;;;;;;23.52;63.65;100063.70;104855;1265;64090;-43
2023/06/17 05:22:03;;;;;;;7.20;4.00;;;;;;;23.58;63.29;100096.56;104750;1271;72587;-42
2023/06/17 05:24:31;;;;;;;9.30;3.70;;;;;;;23.73;64.09;100130.89;105208;1259;378069;-43
2023/06/17 05:26:59;;;;;;;12.50;4.00;;;;;;;23.94;61.86;100072.92;105388;1256;59541;-43
2023/06/17 05:29:27;;;;;;;18.50;3.90;;;;;;;24.10;61.50;100088.96;105602;1260;70301;-43
2023/06/17 05:31:55;;;;;;;11.70;4.80;;;;;;;24.29;60.95;100085.09;105484;1256;65166;-42
2023/06/17 05:34:22;;;;;;;10.40;4.80;;;;;;;24.43;59.47;100044.27;105482;1261;70894;-43
2023/06/17 05:36:50;;;;;;;10.60;4.00;;;;;;;24.48;58.49;100033.81;105612;1256;59728;-42
2023/06/17 05:39:18;;;;;;;10.90;3.80;;;;;;;24.63;58.70;100062.40;105584;1262;59618;-43
2023/06/17 05:41:46;;;;;;;7.10;3.60;;;;;;;24.82;57.48;100015.63;105557;1256;71808;-44
2023/06/17 05:44:16;;;;;;;16.80;4.20;;;;;;;24.91;57.54;100045.26;105528;1257;65260;-43
2023/06/17 05:46:45;;;;;;;16.00;4.20;;;;;;;24.99;56.33;99989.38;105602;1257;72663;-43
2023/06/17 05:49:14;;;;;;;6.90;3.60;;;;;;;24.89;55.16;99961.80;105541;1257;59611;-43
2023/06/17 05:51:42;;;;;;;8.00;4.00;;;;;;;24.80;54.09;99925.20;105575;1263;59597;-44
2023/06/17 05:54:10;;;;;;;9.20;3.90;;;;;;;24.69;55.01;100005.77;105538;1257;72987;-43
2023/06/17 05:56:39;;;;;;;15.90;4.10;;;;;;;24.66;55.65;100061.27;105422;1257;64158;-43
2023/06/17 05:59:07;;;;;;;12.20;4.70;;;;;;;24.72;55.55;100061.30;105569;1263;71394;-43
2023/06/17 06:01:38;;;;;;;9.80;3.90;;;;;;;24.75;56.25;100101.59;105538;1257;59606;-43
2023/06/17 06:04:06;;;;;;;13.90;3.70;;;;;;;24.92;56.30;100103.05;105582;1257;60191;-43
2023/06/17 06:06:33;;;;;;;11.70;4.20;;;;;;;25.05;54.33;99983.91;105573;1263;72984;-43
2023/06/17 06:09:01;;;;;;;16.80;4.10;;;;;;;25.09;54.38;100004.70;105561;1257;64309;-43
2023/06/17 06:11:29;;;;;;;12.00;3.50;;;;;;;25.18;53.49;99967.55;105528;1257;71461;-43
2023/06/17 06:13:57;;;;;;;9.60;4.30;;;;;;;25.21;53.33;99968.66;105487;1257;59626;-44
2023/06/17 06:16:24;;;;;;;12.30;4.30;;;;;;;25.34;53.41;99993.39;105477;1262;60062;-43
2023/06/17 06:18:52;;;;;;;12.10;3.70;;;;;;;25.49;53.23;99975.64;105332;1257;73008;-44
2023/06/17 06:21:21;;;;;;;13.80;5.10;;;;;;;25.62;52.39;99929.69;105576;1257;64011;-44
2023/06/17 06:23:49;;;;;;;21.80;5.20;;;;;;;25.76;53.00;99977.91;105370;1260;71411;-43
2023/06/17 06:26:17;;;;;;;8.20;4.20;;;;;;;25.93;52.33;99936.73;105598;1260;59774;-42
2023/06/17 06:28:45;;;;;;;14.70;7.10;;;;;;;25.97;51.55;99878.03;105555;1263;59702;-42
2023/06/17 06:31:14;;;;;;;10.00;4.20;;;;;;;25.96;51.13;99865.59;105562;1257;72990;-42
2023/06/17 06:33:41;;;;;;;17.10;5.30;;;;;;;25.93;50.66;99844.11;105416;1258;64099;-42
2023/06/17 06:36:10;;;;;;;14.50;8.70;;;;;;;25.90;50.67;99869.70;105603;1257;70666;-43
2023/06/17 06:38:38;;;;;;;9.70;4.30;;;;;;;25.91;50.36;99842.20;105541;1257;59730;-42
2023/06/17 06:41:06;;;;;;;18.60;9.80;;;;;;;25.89;49.92;99809.91;105558;1262;59713;-42
2023/06/17 06:43:37;;;;;;;12.00;3.90;;;;;;;25.90;50.63;99897.80;105360;1265;73090;-43
2023/06/17 06:46:12;;;;;;;6.20;4.10;;;;;;;26.07;49.70;99812.42;105531;1263;65209;-43
2023/06/17 06:48:43;;;;;;;11.80;3.80;;;;;;;26.13;47.80;99620.47;105555;1260;71458;-43
2023/06/17 06:51:10;;;;;;;4.30;4.00;;;;;;;26.05;48.28;99695.48;105332;1261;59749;-43
2023/06/17 06:53:38;;;;;;;8.40;3.90;;;;;;;26.05;48.98;99795.16;105380;1257;59676;-43
2023/06/17 06:56:06;;;;;;;15.20;4.30;;;;;;;26.13;49.12;99798.51;105654;1261;73016;-42
2023/06/17 06:58:36;;;;;;;9.30;3.70;;;;;;;26.22;48.53;99736.11;105602;1257;64224;-43
2023/06/17 07:01:04;;;;;;;13.90;3.70;;;;;;;26.23;49.36;99842.80;105373;1263;72739;-42
2023/06/17 07:03:32;;;;;;;7.70;3.80;;;;;;;26.29;48.36;99734.04;105516;1263;59726;-43
2023/06/17 07:06:00;;;;;;;10.50;4.00;;;;;;;26.29;48.40;99738.84;105390;1261;59622;-43
2023/06/17 07:08:29;;;;;;;14.60;4.50;;;;;;;26.42;49.20;99832.49;105372;1264;73007;-43
2023/06/17 07:10:57;;;;;;;9.60;4.40;;;;;;;26.53;48.69;99799.99;105542;1257;64256;-43
2023/06/17 07:13:24;;;;;;;6.50;3.60;;;;;;;26.61;48.26;99744.95;105552;1257;72676;-42
2023/06/17 07:15:52;;;;;;;9.40;4.30;;;;;;;26.71;47.17;99625.66;105523;1263;59645;-43
2023/06/17 07:18:21;;;;;;;8.40;3.70;;;;;;;26.76;46.26;99509.83;105388;1266;59721;-43
2023/06/17 07:20:48;;;;;;;4.50;3.80;;;;;;;26.74;46.66;99570.30;105574;1257;72816;-43
2023/06/17 07:23:18;;;;;;;8.40;4.20;;;;;;;26.80;46.11;99549.91;105360;1257;64224;-43
2023/06/17 07:25:47;;;;;;;6.60;3.90;;;;;;;26.86;44.61;99368.89;105569;1258;72730;-43
2023/06/17 07:28:15;;;;;;;13.10;4.60;;;;;;;26.76;44.88;99423.62;105497;1260;59723;-43
2023/06/17 07:30:42;;;;;;;6.20;4.00;;;;;;;26.72;45.63;99517.77;105541;1262;60052;-42
2023/06/17 07:33:11;;;;;;;6.80;3.50;;;;;;;26.77;44.64;99431.36;105541;1261;71833;-42
2023/06/17 07:35:39;;;;;;;8.70;3.70;;;;;;;26.72;44.60;99430.91;105413;1263;65770;-43
2023/06/17 07:38:07;;;;;;;7.30;3.70;;;;;;;26.64;44.74;99439.10;105540;1259;72768;-43
2023/06/17 07:40:37;;;;;;;44.90;4.80;;;;;;;26.66;46.26;99636.88;105385;1265;59666;-43
2023/06/17 07:43:05;;;;;;;6.50;3.70;;;;;;;26.89;46.06;99630.73;105564;1262;59522;-43
2023/06/17 07:45:32;;;;;;;13.50;3.90;;;;;;;27.09;46.03;99600.82;105530;1263;71209;-43
2023/06/17 07:48:00;;;;;;;9.30;3.80;;;;;;;27.33;45.07;99532.63;105512;1257;63621;-44
2023/06/17 07:50:28;;;;;;;8.40;3.60;;;;;;;27.45;44.01;99378.77;105540;1260;71371;-43
2023/06/17 07:52:57;;;;;;;8.20;3.60;;;;;;;27.41;43.75;99362.67;105540;1260;59750;-43
2023/06/17 07:55:26;;;;;;;6.40;4.00;;;;;;;27.37;42.90;99246.75;105577;1257;59740;-44
2023/06/17 07:57:54;;;;;;;8.30;4.40;;;;;;;27.32;43.40;99327.36;105603;1257;73106;-44
2023/06/17 08:00:22;;;;;;;8.00;3.60;;;;;;;27.39;43.68;99372.13;105583;1263;64026;-44
2023/06/17 08:02:51;;;;;;;3.90;3.50;;;;;;;27.57;43.18;99327.39;105533;1257;72685;-43
2023/06/17 08:05:19;;;;;;;6.20;3.40;;;;;;;27.72;43.88;99388.19;105572;1261;59686;-45
2023/06/17 08:07:47;;;;;;;3.80;3.50;;;;;;;27.96;43.90;99404.56;105601;1263;59657;-44
2023/06/17 08:10:15;;;;;;;8.20;3.70;;;;;;;28.20;43.53;99352.66;105466;1263;71742;-45
2023/06/17 08:12:44;;;;;;;7.30;3.60;;;;;;;28.41;42.92;99286.89;105240;1257;65348;-44
2023/06/17 08:15:12;;;;;;;5.20;3.90;;;;;;;28.41;42.23;99177.77;105410;1263;71455;-45
2023/06/17 08:17:40;;;;;;;11.10;4.00;;;;;;;28.35;42.65;99242.63;105600;1261;59810;-44
2023/06/17 08:20:09;;;;;;;11.80;7.30;;;;;;;28.25;42.32;99218.27;105575;1257;60497;-46
2023/06/17 08:22:37;;;;;;;12.40;5.40;;;;;;;28.10;41.64;99175.79;105587;1262;72076;-43
2023/06/17 08:25:06;;;;;;;9.30;4.00;;;;;;;28.00;41.86;99200.10;105586;1258;64016;-43
2023/06/17 08:27:34;;;;;;;10.30;3.60;;;;;;;27.99;41.71;99221.27;105570;1260;71871;-43
2023/06/17 08:30:01;;;;;;;8.30;3.70;;;;;;;28.07;42.32;99286.35;105509;1257;59648;-43
2023/06/17 08:32:30;;;;;;;5.80;3.80;;;;;;;28.10;41.34;99153.46;105571;1262;59601;-43
2023/06/17 08:35:00;;;;;;;7.80;4.10;;;;;;;27.99;41.71;99172.18;105562;1257;71742;-43
2023/06/17 08:37:28;;;;;;;7.30;4.00;;;;;;;28.03;41.67;99206.66;105598;1257;64355;-43
2023/06/17 08:39:55;;;;;;;9.90;3.70;;;;;;;28.00;42.21;99246.22;105532;1262;71161;-43
2023/06/17 08:42:23;;;;;;;8.80;3.50;;;;;;;27.90;41.83;99247.16;105572;1261;59730;-43
2023/06/17 08:44:50;;;;;;;12.70;3.50;;;;;;;27.59;42.12;99288.93;105549;1262;59592;-43
2023/06/17 08:47:18;;;;;;;11.40;4.10;;;;;;;27.38;42.58;99368.84;105389;1265;71839;-43
2023/06/17 08:49:46;;;;;;;14.50;4.70;;;;;;;27.49;43.27;99463.52;105360;1257;63483;-43
2023/06/17 08:52:14;;;;;;;3.70;3.40;;;;;;;27.72;42.60;99390.80;105580;1263;72720;-43
2023/06/17 08:54:42;;;;;;;6.60;3.70;;;;;;;27.89;42.05;99278.45;105481;1263;59733;-45
2023/06/17 08:57:13;;;;;;;4.30;3.70;;;;;;;28.02;42.11;99316.68;105308;1263;60170;-49
2023/06/17 08:59:41;;;;;;;6.60;3.80;;;;;;;28.21;42.27;99330.63;105583;1263;71801;-45
2023/06/17 09:02:12;;;;;;;7.10;4.00;;;;;;;28.31;41.40;99209.83;105562;1261;64468;-42
2023/06/17 09:04:40;;;;;;;14.40;4.90;;;;;;;28.29;40.49;99073.29;105516;1263;72657;-43
2023/06/17 09:07:09;;;;;;;13.50;4.10;;;;;;;28.38;41.40;99172.61;105535;1259;59679;-43
2023/06/17 09:09:37;;;;;;;13.30;3.90;;;;;;;28.66;40.55;99075.06;105550;1262;59627;-43
2023/06/17 09:12:05;;;;;;;10.60;3.80;;;;;;;28.78;40.91;99139.70;105533;1262;73033;-43
2023/06/17 09:14:34;;;;;;;7.20;3.80;;;;;;;28.82;39.99;99042.95;105509;1263;65358;-43
2023/06/17 09:17:02;;;;;;;7.90;4.00;;;;;;;28.47;39.90;99026.93;105552;1263;72508;-44
2023/06/17 09:19:32;;;;;;;8.10;3.50;;;;;;;28.09;40.41;99102.15;105558;1263;60478;-44
2023/06/17 09:22:06;;;;;;;12.50;4.60;;;;;;;28.01;40.99;99166.83;105603;1263;60475;-43
2023/06/17 09:24:34;;;;;;;6.20;3.50;;;;;;;28.26;41.06;99212.97;105542;1257;72568;-43
2023/06/17 09:27:02;;;;;;;10.10;3.60;;;;;;;28.58;40.79;99126.39;105577;1261;65369;-44
2023/06/17 09:29:30;;;;;;;18.80;4.30;;;;;;;28.91;40.45;99093.98;105530;1263;72726;-43
2023/06/17 09:32:01;;;;;;;7.20;3.30;;;;;;;29.14;39.22;98977.52;105530;1257;60438;-44
2023/06/17 09:34:28;;;;;;;7.70;5.00;;;;;;;29.13;38.89;98893.67;105572;1262;60499;-44
2023/06/17 09:37:00;;;;;;;11.90;7.00;;;;;;;28.92;39.25;98930.83;105504;1257;72654;-44
2023/06/17 09:39:32;;;;;;;11.00;4.60;;;;;;;28.70;39.74;98991.56;105598;1263;63993;-44
2023/06/17 09:42:08;;;;;;;9.90;4.70;;;;;;;28.66;40.47;99108.20;105562;1261;72605;-44
2023/06/17 09:44:38;;;;;;;12.00;4.70;;;;;;;28.69;40.13;99103.15;105577;1262;60482;-44
2023/06/17 09:47:07;;;;;;;11.50;4.30;;;;;;;28.42;40.02;99091.11;105605;1261;60435;-44
2023/06/17 09:49:36;;;;;;;8.00;4.80;;;;;;;28.14;41.06;99243.20;105552;1263;73844;-44
2023/06/17 09:52:08;;;;;;;6.20;3.60;;;;;;;28.00;41.77;99331.48;105572;1257;64053;-44
2023/06/17 09:54:36;;;;;;;8.20;4.00;;;;;;;27.88;41.91;99351.01;105572;1263;71252;-44
2023/06/17 09:57:07;;;;;;;6.60;3.20;;;;;;;27.85;42.31;99428.73;105545;1258;60473;-44
2023/06/17 09:59:35;;;;;;;19.70;4.00;;;;;;;28.10;42.70;99451.23;105426;1262;60626;-44
2023/06/17 10:02:04;;;;;;;14.70;3.90;;;;;;;28.54;42.88;99463.57;105536;1262;73787;-44
2023/06/17 10:04:31;;;;;;;28.80;4.30;;;;;;;29.03;41.81;99339.20;105558;1257;64305;-44
2023/06/17 10:07:02;;;;;;;13.50;3.90;;;;;;;29.47;41.61;99291.25;105542;1261;72615;-44
2023/06/17 10:09:30;;;;;;;6.60;3.10;;;;;;;29.91;40.20;99138.55;105563;1262;60437;-44
2023/06/17 10:11:58;;;;;;;9.50;3.30;;;;;;;30.01;38.36;98857.77;105553;1263;60418;-44
2023/06/17 10:14:28;;;;;;;5.40;3.50;;;;;;;29.63;38.32;98843.71;105577;1263;72634;-44
2023/06/17 10:16:56;;;;;;;6.20;3.20;;;;;;;29.18;39.06;98924.29;105587;1263;64083;-44
2023/06/17 10:19:26;;;;;;;5.90;3.20;;;;;;;28.77;40.38;99102.22;105402;1263;71464;-44
2023/06/17 10:21:54;;;;;;;4.40;4.00;;;;;;;28.74;41.01;99224.66;105551;1257;60412;-44
2023/06/17 10:24:22;;;;;;;3.90;3.50;;;;;;;28.98;40.76;99214.25;105598;1262;60424;-45
2023/06/17 10:26:50;;;;;;;26.60;4.50;;;;;;;29.27;39.95;99131.96;105550;1262;75325;-44
2023/06/17 10:29:18;;;;;;;4.30;3.60;;;;;;;29.49;39.85;99081.71;105572;1263;64060;-44
2023/06/17 10:31:46;;;;;;;6.40;3.90;;;;;;;29.70;39.64;99038.23;105544;1263;72819;-44
2023/06/17 10:34:21;;;;;;;6.10;3.60;;;;;;;29.76;40.57;99155.48;105542;1258;60412;-44
2023/06/17 10:36:57;;;;;;;6.40;3.80;;;;;;;29.71;40.19;99160.86;105532;1263;60377;-44
2023/06/17 10:39:25;;;;;;;6.30;3.80;;;;;;;29.74;39.81;99091.34;105579;1262;73781;-44
2023/06/17 10:41:57;;;;;;;6.90;4.00;;;;;;;29.92;39.10;98978.58;105587;1263;64064;-44
2023/06/17 10:44:29;;;;;;;8.60;5.00;;;;;;;30.00;38.21;98872.44;105573;1270;71439;-44
2023/06/17 10:46:57;;;;;;;13.10;4.00;;;;;;;29.88;38.74;98900.71;105596;1259;60539;-44
2023/06/17 10:49:25;;;;;;;15.50;4.80;;;;;;;29.74;38.75;98945.27;105543;1258;60453;-44
2023/06/17 10:51:59;;;;;;;8.60;3.80;;;;;;;29.53;38.89;98935.34;105486;1261;72622;-44
2023/06/17 10:54:30;;;;;;;9.30;4.10;;;;;;;29.44;39.44;99011.98;105339;1262;64184;-44
2023/06/17 10:57:02;;;;;;;8.70;4.10;;;;;;;29.35;39.28;99029.04;105428;1263;72623;-44
2023/06/17 10:59:31;;;;;;;9.60;4.00;;;;;;;29.20;39.66;99063.45;105548;1263;60530;-44
2023/06/17 11:02:01;;;;;;;7.70;3.40;;;;;;;29.03;39.54;99080.86;105495;1263;60521;-44
2023/06/17 11:04:36;;;;;;;9.10;3.90;;;;;;;29.12;40.46;99175.96;105531;1262;73831;-44
2023/06/17 11:07:05;;;;;;;5.60;3.70;;;;;;;29.53;39.12;99024.95;105467;1263;64134;-44
2023/06/17 11:09:33;;;;;;;6.70;4.20;;;;;;;29.87;39.37;99035.02;105595;1261;72691;-43
2023/06/17 11:12:02;;;;;;;9.30;3.50;;;;;;;30.31;39.14;98985.38;105585;1258;60520;-44
2023/06/17 11:14:30;;;;;;;11.90;3.80;;;;;;;30.69;38.61;98884.89;105533;1263;60522;-44
2023/06/17 11:16:58;;;;;;;5.50;3.10;;;;;;;30.87;38.89;98932.52;105599;1263;74206;-43
2023/06/17 11:19:26;;;;;;;9.90;4.90;;;;;;;30.77;38.21;98822.01;105495;1257;64030;-44
2023/06/17 11:22:01;;;;;;;4.20;3.70;;;;;;;30.53;38.26;98850.68;105562;1261;71418;-44
2023/06/17 11:24:33;;;;;;;5.50;4.20;;;;;;;30.26;38.67;98907.73;105528;1258;60409;-44
2023/06/17 11:27:01;;;;;;;10.20;4.00;;;;;;;30.16;39.45;99025.05;105535;1262;60399;-47
2023/06/17 11:29:29;;;;;;;14.30;3.50;;;;;;;30.24;39.93;99096.14;105518;1263;73832;-45
2023/06/17 11:31:58;;;;;;;8.50;3.30;;;;;;;30.36;38.38;98927.13;105498;1264;63933;-43
2023/06/17 11:34:31;;;;;;;7.10;3.60;;;;;;;30.20;38.81;98932.35;105594;1258;71429;-43
2023/06/17 11:37:01;;;;;;;16.30;4.20;;;;;;;30.05;39.49;99032.75;105512;1263;60440;-43
2023/06/17 11:39:29;;;;;;;8.60;4.00;;;;;;;30.10;39.51;99060.55;105464;1263;60363;-44
2023/06/17 11:42:02;;;;;;;9.90;3.50;;;;;;;30.34;38.37;98926.25;105538;1263;72580;-43
2023/06/17 11:44:31;;;;;;;12.80;4.10;;;;;;;30.49;37.78;98825.85;105556;1263;64008;-43
2023/06/17 11:47:06;;;;;;;10.90;3.30;;;;;;;30.57;38.59;98925.42;105389;1263;72642;-44
2023/06/17 11:49:34;;;;;;;10.60;3.80;;;;;;;30.54;38.19;98870.75;105528;1264;60536;-44
2023/06/17 11:52:06;;;;;;;14.50;4.10;;;;;;;30.40;38.31;98883.80;105552;1263;60427;-43
2023/06/17 11:54:45;;;;;;;10.70;4.40;;;;;;;30.37;39.23;98990.20;105522;1262;72093;-43
2023/06/17 11:57:21;;;;;;;8.30;3.50;;;;;;;30.52;40.18;99126.52;105489;1259;64031;-43
2023/06/17 11:59:50;;;;;;;8.50;4.50;;;;;;;30.55;38.62;98949.69;105544;1263;72680;-44
2023/06/17 12:02:18;;;;;;;13.00;4.40;;;;;;;30.27;38.46;98923.79;105549;1259;60430;-47
2023/06/17 12:04:47;;;;;;;7.60;3.80;;;;;;;29.80;38.72;98965.99;105497;1262;60406;-46
2023/06/17 12:07:15;;;;;;;14.70;4.30;;;;;;;29.40;40.03;99117.45;105561;1258;72594;-44
2023/06/17 12:09:50;;;;;;;8.90;4.30;;;;;;;29.39;39.95;99152.77;105407;1263;65172;-45
2023/06/17 12:12:29;;;;;;;7.20;3.80;;;;;;;29.57;41.37;99312.46;105571;1262;71347;-49
2023/06/17 12:15:01;;;;;;;6.40;3.90;;;;;;;29.65;40.19;99197.15;105533;1263;60475;-45
2023/06/17 12:17:46;;;;;;;11.80;4.90;;;;;;;29.40;40.08;99200.89;105517;1258;60449;-43
2023/06/17 12:20:15;;;;;;;12.10;4.40;;;;;;;29.22;40.26;99216.96;105536;1262;73794;-43